Flight Track Log - Related Links

Times and Time Zones

All times are in EDT time to prevent confusion due to time zone crossing. See the N450S flight status page for this flight to view local times or setup timezone preferences in your user account.

Time Position Orientation Groundspeed Altitude Reporting Facility
EDT Latitude Longitude Course Direction KTS MPH feet Rate Location/Type
Wed 02:48:50 PM 37.0933 -86.3181 33° Northeast 283 326 4,600  Level Memphis Center
Wed 02:50:50 PM 37.1906 -86.2403 33° Northeast 227 261 6,300 1,077 Climbing Memphis Center
Wed 02:51:26 PM 37.2192 -86.2189 31° Northeast 182 209 7,400 1,959 Climbing Indianapolis Center
Wed 02:52:28 PM 37.2608 -86.1875 31° Northeast 175 201 9,500 2,274 Climbing Indianapolis Center
Wed 02:53:30 PM 37.3000 -86.1567 32° Northeast 166 191 12,100 2,274 Climbing Indianapolis Center
Wed 02:54:32 PM 37.3261 -86.1089 55° Northeast 168 193 14,200 1,984 Climbing Indianapolis Center
Wed 02:55:34 PM 37.3511 -86.0664 53° Northeast 153 176 16,200 1,742 Climbing Indianapolis Center
Wed 02:56:36 PM 37.3761 -86.0150 59° Northeast 148 170 17,800 1,597 Climbing Indianapolis Center
Wed 02:57:38 PM 37.3989 -85.9694 58° Northeast 151 174 19,500 1,452 Climbing Indianapolis Center
Wed 02:58:40 PM 37.4242 -85.9228 56° Northeast 159 183 20,800 1,306 Climbing Indianapolis Center
Wed 02:59:42 PM 37.4528 -85.8758 52° Northeast 165 190 22,200 1,210 Climbing Indianapolis Center
Wed 03:00:44 PM 37.4814 -85.8331 50° Northeast 172 198 23,300 1,210 Climbing Indianapolis Center
Wed 03:01:46 PM 37.5208 -85.7739 50° Northeast 183 211 24,700 1,258 Climbing Indianapolis Center
Wed 03:02:48 PM 37.5528 -85.7250 50° Northeast 183 211 25,900 1,113 Climbing Indianapolis Center
Wed 03:03:50 PM 37.5817 -85.6750 54° Northeast 177 204 27,000 532 Climbing Indianapolis Center
Wed 03:04:52 PM 37.6106 -85.6172 58° Northeast 193 222 27,000  Level Indianapolis Center
Wed 03:05:54 PM 37.6636 -85.5661 37° Northeast 245 282 27,000  Level Indianapolis Center
Wed 03:06:56 PM 37.7381 -85.5133 29° Northeast 258 297 27,000  Level Indianapolis Center
Wed 03:07:58 PM 37.8022 -85.4653 31° Northeast 265 305 27,000  Level Indianapolis Center
Wed 03:09:01 PM 37.8711 -85.4158 30° Northeast 278 320 27,000  Level Indianapolis Center
Wed 03:10:03 PM 37.9358 -85.3683 30° Northeast 270 311 27,000  Level Indianapolis Center
Wed 03:11:05 PM 38.0028 -85.3192 30° Northeast 274 315 27,000  Level Indianapolis Center
Wed 03:12:07 PM 38.0672 -85.2722 30° Northeast 269 310 27,000  Level Indianapolis Center
Wed 03:13:09 PM 38.1342 -85.2236 30° Northeast 277 319 27,000  Level Indianapolis Center
Wed 03:14:11 PM 38.2100 -85.1664 31° Northeast 273 314 27,000  Level Indianapolis Center
Wed 03:15:13 PM 38.2756 -85.1189 30° Northeast 272 313 27,000  Level Indianapolis Center
Wed 03:16:15 PM 38.3422 -85.0697 30° Northeast 274 315 27,000  Level Indianapolis Center
Wed 03:17:17 PM 38.4067 -85.0219 30° Northeast 270 311 27,000  Level Indianapolis Center
Wed 03:18:19 PM 38.4842 -84.9633 31° Northeast 275 316 27,000  Level Indianapolis Center
Wed 03:19:21 PM 38.5511 -84.9139 30° Northeast 277 319 27,000  Level Indianapolis Center
Wed 03:20:23 PM 38.6169 -84.8647 30° Northeast 273 314 27,000  Level Indianapolis Center
Wed 03:21:25 PM 38.6797 -84.8183 30° Northeast 283 326 27,000  Level Indianapolis Center
Wed 03:22:27 PM 38.7572 -84.7597 31° Northeast 273 314 27,000  Level Indianapolis Center
Wed 03:23:29 PM 38.8242 -84.7100 30° Northeast 280 322 27,000  Level Indianapolis Center
Wed 03:24:32 PM 38.8889 -84.6603 31° Northeast 275 316 27,000  Level Indianapolis Center
Wed 03:25:34 PM 38.9603 -84.6081 30° Northeast 282 325 27,000  Level Indianapolis Center
Wed 03:26:36 PM 39.0272 -84.5575 30° Northeast 279 321 27,000  Level Indianapolis Center
Wed 03:27:38 PM 39.0933 -84.5058 31° Northeast 277 319 27,000  Level Indianapolis Center
Wed 03:28:40 PM 39.1622 -84.4528 31° Northeast 285 328 27,000  Level Indianapolis Center
Wed 03:29:42 PM 39.2406 -84.3944 30° Northeast 278 320 27,000  Level Indianapolis Center
Wed 03:30:44 PM 39.3083 -84.3425 31° Northeast 280 322 27,000  Level Indianapolis Center
Wed 03:31:46 PM 39.3767 -84.2903 31° Northeast 283 326 27,000  Level Indianapolis Center
Wed 03:32:48 PM 39.4447 -84.2381 31° Northeast 281 323 27,000  Level Indianapolis Center
Wed 03:33:50 PM 39.5122 -84.1844 31° Northeast 282 325 27,000  Level Indianapolis Center
Wed 03:34:52 PM 39.5811 -84.1319 30° Northeast 284 327 27,000  Level Indianapolis Center
Wed 03:35:54 PM 39.6492 -84.0789 31° Northeast 282 325 27,000  Level Indianapolis Center
Wed 03:36:56 PM 39.7292 -84.0164 31° Northeast 285 328 27,000  Level Indianapolis Center
Wed 03:37:58 PM 39.7983 -83.9631 31° Northeast 285 328 27,000  Level Indianapolis Center
Wed 03:39:00 PM 39.8667 -83.9094 31° Northeast 283 326 27,000  Level Indianapolis Center
Wed 03:40:02 PM 39.9356 -83.8561 31° Northeast 284 327 27,000  Level Indianapolis Center
Wed 03:41:04 PM 40.0050 -83.8017 31° Northeast 287 330 27,000  Level Indianapolis Center
Wed 03:42:07 PM 40.0739 -83.7478 31° Northeast 285 328 27,000 -480 Level Indianapolis Center
Wed 03:43:09 PM 40.1439 -83.6917 31° Northeast 293 337 26,000 -1,113 Descending Indianapolis Center
Wed 03:44:11 PM 40.2219 -83.6308 31° Northeast 318 366 24,700 -1,258 Descending Indianapolis Center
Wed 03:45:13 PM 40.2986 -83.5694 31° Northeast 319 367 23,400 -1,355 Descending Indianapolis Center
Wed 03:46:15 PM 40.3906 -83.4958 31° Northeast 327 376 21,900 -1,403 Descending Indianapolis Center
Wed 03:47:17 PM 40.4669 -83.4347 31° Northeast 320 368 20,500 -1,452 Descending Indianapolis Center
Wed 03:48:19 PM 40.5419 -83.3733 32° Northeast 315 362 18,900 -774 Descending Indianapolis Center
Wed 03:49:21 PM 40.6100 -83.3169 32° Northeast 285 328 18,900  Level Indianapolis Center
Wed 03:50:23 PM 40.6681 -83.2503 41° Northeast 275 316 18,900  Level Indianapolis Center
Wed 03:51:25 PM 40.7272 -83.1894 38° Northeast 269 310 18,900  Level Indianapolis Center
Wed 03:52:27 PM 40.7869 -83.1192 42° Northeast 271 312 18,900  Level Indianapolis Center
Wed 03:53:29 PM 40.8464 -83.0542 40° Northeast 272 313 18,900 -435 Level Indianapolis Center
Wed 03:54:31 PM 40.9047 -82.9878 41° Northeast 275 316 18,000 -871 Descending Indianapolis Center
Wed 03:55:33 PM 40.9647 -82.9225 39° Northeast 275 316 17,100 -1,210 Descending Indianapolis Center
Wed 03:56:35 PM 41.0403 -82.8567 33° Northeast 273 314 15,500 -1,789 Descending Indianapolis Center
Wed 03:57:27 PM 41.0981 -82.8150 29° Northeast 272 313 13,700 -2,032 Descending Cleveland Center
Wed 03:59:41 PM 41.2456 -82.7372 22° Northeast 267 307 9,200 -2,080 Descending Cleveland Center
Wed 04:00:46 PM 41.3214 -82.6983 21° North 266 306 6,800 -2,496 Descending Cleveland Center
Wed 04:01:46 PM 41.3947 -82.6675 18° North 266 306 4,000 -1,400 Descending Cleveland Center
Wed 04:02:46 PM 41.4683 -82.6339 19° North 266 306 4,000  Level Cleveland Center
Wed 04:03:46 PM 41.5419 -82.6028 18° North 266 306 4,000  Level Cleveland Center
Wed 04:04:46 PM 41.5861 -82.5819 19° North 266 306 4,000  Level Cleveland Center
Wed 04:06:46 PM 41.5861 -82.5819 288° West 266 306 4,000  Level Cleveland Center

Login

Don't have an account? Register now (free) for customized features, flight alerts, and more!